KPHL/PHL METAR and TAF weather

Enter ICAO airport designator
Station Type Date Time Source
KPHL METAR 2020/01/20 18:54 UTC NOAA

KPHL 201854Z 35014KT 10SM CLR 00/M16 A3032 RMK AO2 SLP268 T00001161 $


Station Type Date Time Source
KPHL Decoded METAR 2020/01/20 18:54 UTC NOAA

PHILADELPHIA INTERNATIONAL AIRPT, PA, United States (KPHL) 39-52N 075-14W 18M
Jan 20, 2020 - 01:54 PM EST / 2020.01.20 1854 UTC
Wind: from the N (350 degrees) at 16 MPH (14 KT):0
Visibility: 10 mile(s):0
Sky conditions: clear
Temperature: 32.0 F (0.0 C)
Windchill: 21 F (-6 C):1
Dew Point: 3.0 F (-16.1 C)
Relative Humidity: 28%
Pressure (altimeter): 30.32 in. Hg (1026 hPa)
ob: KPHL 201854Z 35014KT 10SM CLR 00/M16 A3032 RMK AO2 SLP268 T00001161
cycle: 19

Station Type Date Time Source
KPHL TAF 2020/01/20 18:31 UTC NOAA

TAF KPHL 201728Z 2018/2124 34014G22KT P6SM SKC
FM202100 33012KT P6SM SKC
FM210700 35006KT P6SM SKC
FM211500 33010KT P6SM SKC

Example: see airport list